sensor_id;sensor_type;location;lat;lon;timestamp;temperature;humidity
11536;DHT22;5824;49.336;8.652;2022-08-20T00:00:54;21.60;1.00
11536;DHT22;5824;49.336;8.652;2022-08-20T00:03:23;21.60;1.00
11536;DHT22;5824;49.336;8.652;2022-08-20T00:08:24;21.60;1.00
11536;DHT22;5824;49.336;8.652;2022-08-20T00:10:51;21.50;1.00
11536;DHT22;5824;49.336;8.652;2022-08-20T00:13:22;21.50;1.00
11536;DHT22;5824;49.336;8.652;2022-08-20T00:15:49;21.50;1.00
11536;DHT22;5824;49.336;8.652;2022-08-20T00:18:15;21.40;1.00
11536;DHT22;5824;49.336;8.652;2022-08-20T00:20:45;21.40;1.00
11536;DHT22;5824;49.336;8.652;2022-08-20T00:23:11;21.30;1.00
11536;DHT22;5824;49.336;8.652;2022-08-20T00:25:37;21.10;1.00
11536;DHT22;5824;49.336;8.652;2022-08-20T00:28:03;21.00;1.00
11536;DHT22;5824;49.336;8.652;2022-08-20T00:30:31;20.90;1.00
11536;DHT22;5824;49.336;8.652;2022-08-20T00:33:04;20.80;1.00
11536;DHT22;5824;49.336;8.652;2022-08-20T00:35:32;20.80;1.00
11536;DHT22;5824;49.336;8.652;2022-08-20T00:37:58;20.70;1.00
11536;DHT22;5824;49.336;8.652;2022-08-20T00:40:34;20.70;1.00
11536;DHT22;5824;49.336;8.652;2022-08-20T00:43:02;20.70;1.00
11536;DHT22;5824;49.336;8.652;2022-08-20T00:45:48;20.60;1.00
11536;DHT22;5824;49.336;8.652;2022-08-20T00:48:15;20.10;1.00
11536;DHT22;5824;49.336;8.652;2022-08-20T00:50:40;20.60;1.00
11536;DHT22;5824;49.336;8.652;2022-08-20T00:53:07;20.60;1.00
11536;DHT22;5824;49.336;8.652;2022-08-20T00:55:34;20.60;1.00
11536;DHT22;5824;49.336;8.652;2022-08-20T00:58:03;20.60;1.00
11536;DHT22;5824;49.336;8.652;2022-08-20T01:00:33;20.60;1.00
11536;DHT22;5824;49.336;8.652;2022-08-20T01:03:00;20.60;1.00
11536;DHT22;5824;49.336;8.652;2022-08-20T01:05:27;20.60;1.00
11536;DHT22;5824;49.336;8.652;2022-08-20T01:07:53;20.60;1.00
11536;DHT22;5824;49.336;8.652;2022-08-20T01:10:27;20.60;1.00
11536;DHT22;5824;49.336;8.652;2022-08-20T01:12:56;20.50;1.00
11536;DHT22;5824;49.336;8.652;2022-08-20T01:15:26;20.50;1.00
11536;DHT22;5824;49.336;8.652;2022-08-20T01:17:56;20.60;1.00
11536;DHT22;5824;49.336;8.652;2022-08-20T01:20:34;20.50;1.00
11536;DHT22;5824;49.336;8.652;2022-08-20T01:23:21;20.50;1.00
11536;DHT22;5824;49.336;8.652;2022-08-20T01:26:13;20.40;1.00
11536;DHT22;5824;49.336;8.652;2022-08-20T01:28:52;20.30;1.00
11536;DHT22;5824;49.336;8.652;2022-08-20T01:31:22;20.40;1.00
11536;DHT22;5824;49.336;8.652;2022-08-20T01:33:48;20.30;1.00
11536;DHT22;5824;49.336;8.652;2022-08-20T01:36:16;20.30;1.00
11536;DHT22;5824;49.336;8.652;2022-08-20T01:38:42;20.40;1.00
11536;DHT22;5824;49.336;8.652;2022-08-20T01:44:08;20.40;1.00
11536;DHT22;5824;49.336;8.652;2022-08-20T01:46:37;20.40;1.00
11536;DHT22;5824;49.336;8.652;2022-08-20T01:49:23;20.30;1.00
11536;DHT22;5824;49.336;8.652;2022-08-20T01:51:52;20.30;1.00
11536;DHT22;5824;49.336;8.652;2022-08-20T01:54:18;20.20;1.00
11536;DHT22;5824;49.336;8.652;2022-08-20T01:57:00;20.10;1.00
11536;DHT22;5824;49.336;8.652;2022-08-20T01:59:27;20.20;1.00
11536;DHT22;5824;49.336;8.652;2022-08-20T02:01:54;20.20;1.00
11536;DHT22;5824;49.336;8.652;2022-08-20T02:04:20;20.10;1.00
11536;DHT22;5824;49.336;8.652;2022-08-20T02:06:53;20.20;1.00
11536;DHT22;5824;49.336;8.652;2022-08-20T02:09:20;20.20;1.00
11536;DHT22;5824;49.336;8.652;2022-08-20T02:11:46;20.30;1.00
11536;DHT22;5824;49.336;8.652;2022-08-20T02:14:12;20.40;1.00
11536;DHT22;5824;49.336;8.652;2022-08-20T02:16:42;20.40;1.00
11536;DHT22;5824;49.336;8.652;2022-08-20T02:19:19;20.50;1.00
11536;DHT22;5824;49.336;8.652;2022-08-20T02:21:49;20.50;1.00
11536;DHT22;5824;49.336;8.652;2022-08-20T02:24:16;20.50;1.00
11536;DHT22;5824;49.336;8.652;2022-08-20T02:26:42;20.50;1.00
11536;DHT22;5824;49.336;8.652;2022-08-20T02:29:10;20.50;1.00
11536;DHT22;5824;49.336;8.652;2022-08-20T02:31:37;20.60;1.00
11536;DHT22;5824;49.336;8.652;2022-08-20T02:34:04;20.70;1.00
11536;DHT22;5824;49.336;8.652;2022-08-20T02:36:30;20.80;1.00
11536;DHT22;5824;49.336;8.652;2022-08-20T02:38:55;20.90;1.00
11536;DHT22;5824;49.336;8.652;2022-08-20T02:41:21;20.90;1.00
11536;DHT22;5824;49.336;8.652;2022-08-20T02:43:47;21.00;1.00
11536;DHT22;5824;49.336;8.652;2022-08-20T02:46:14;20.90;1.00
11536;DHT22;5824;49.336;8.652;2022-08-20T02:48:41;20.90;1.00
11536;DHT22;5824;49.336;8.652;2022-08-20T02:51:07;20.90;1.00
11536;DHT22;5824;49.336;8.652;2022-08-20T02:53:37;20.80;1.00
11536;DHT22;5824;49.336;8.652;2022-08-20T02:56:07;20.80;1.00
11536;DHT22;5824;49.336;8.652;2022-08-20T02:58:33;20.90;1.00
11536;DHT22;5824;49.336;8.652;2022-08-20T03:00:59;20.90;1.00
11536;DHT22;5824;49.336;8.652;2022-08-20T03:03:25;20.90;1.00
11536;DHT22;5824;49.336;8.652;2022-08-20T03:05:55;20.90;1.00
11536;DHT22;5824;49.336;8.652;2022-08-20T03:08:21;21.00;1.00
11536;DHT22;5824;49.336;8.652;2022-08-20T03:10:48;21.00;1.00
11536;DHT22;5824;49.336;8.652;2022-08-20T03:13:14;21.00;1.00
11536;DHT22;5824;49.336;8.652;2022-08-20T03:15:42;21.10;1.00
11536;DHT22;5824;49.336;8.652;2022-08-20T03:18:08;20.90;1.00
11536;DHT22;5824;49.336;8.652;2022-08-20T03:20:34;21.20;1.00
11536;DHT22;5824;49.336;8.652;2022-08-20T03:23:00;21.10;1.00
11536;DHT22;5824;49.336;8.652;2022-08-20T03:25:25;21.10;1.00
11536;DHT22;5824;49.336;8.652;2022-08-20T03:27:51;21.10;1.00
11536;DHT22;5824;49.336;8.652;2022-08-20T03:30:17;21.20;1.00
11536;DHT22;5824;49.336;8.652;2022-08-20T03:32:44;21.20;1.00
11536;DHT22;5824;49.336;8.652;2022-08-20T03:35:13;21.30;1.00
11536;DHT22;5824;49.336;8.652;2022-08-20T03:37:39;21.30;1.00
11536;DHT22;5824;49.336;8.652;2022-08-20T03:40:09;21.40;1.00
11536;DHT22;5824;49.336;8.652;2022-08-20T03:42:35;21.30;1.00
11536;DHT22;5824;49.336;8.652;2022-08-20T03:45:01;21.30;1.00
11536;DHT22;5824;49.336;8.652;2022-08-20T03:47:27;21.30;1.00
11536;DHT22;5824;49.336;8.652;2022-08-20T03:50:00;21.20;1.00
11536;DHT22;5824;49.336;8.652;2022-08-20T03:52:27;21.30;1.00
11536;DHT22;5824;49.336;8.652;2022-08-20T03:54:54;21.30;1.00
11536;DHT22;5824;49.336;8.652;2022-08-20T03:57:20;21.30;1.00
11536;DHT22;5824;49.336;8.652;2022-08-20T03:59:46;21.20;1.00
11536;DHT22;5824;49.336;8.652;2022-08-20T04:02:11;21.20;1.00
11536;DHT22;5824;49.336;8.652;2022-08-20T04:04:38;21.20;1.00
11536;DHT22;5824;49.336;8.652;2022-08-20T04:07:14;21.10;1.00
11536;DHT22;5824;49.336;8.652;2022-08-20T04:09:41;21.00;1.00
11536;DHT22;5824;49.336;8.652;2022-08-20T04:12:08;21.00;1.00
11536;DHT22;5824;49.336;8.652;2022-08-20T04:14:36;21.00;1.00
11536;DHT22;5824;49.336;8.652;2022-08-20T04:17:06;21.00;1.00
11536;DHT22;5824;49.336;8.652;2022-08-20T04:19:32;21.00;1.00
11536;DHT22;5824;49.336;8.652;2022-08-20T04:21:58;21.00;1.00
11536;DHT22;5824;49.336;8.652;2022-08-20T04:24:23;20.90;1.00
11536;DHT22;5824;49.336;8.652;2022-08-20T04:26:52;20.80;1.00
11536;DHT22;5824;49.336;8.652;2022-08-20T04:29:20;20.80;1.00
11536;DHT22;5824;49.336;8.652;2022-08-20T04:31:46;20.70;1.00
11536;DHT22;5824;49.336;8.652;2022-08-20T04:34:11;20.60;1.00
11536;DHT22;5824;49.336;8.652;2022-08-20T04:36:37;20.60;1.00
11536;DHT22;5824;49.336;8.652;2022-08-20T04:39:03;20.60;1.00
11536;DHT22;5824;49.336;8.652;2022-08-20T04:41:28;20.60;1.00
11536;DHT22;5824;49.336;8.652;2022-08-20T04:43:55;20.70;1.00
11536;DHT22;5824;49.336;8.652;2022-08-20T04:46:22;20.60;1.00
11536;DHT22;5824;49.336;8.652;2022-08-20T04:48:49;20.60;1.00
11536;DHT22;5824;49.336;8.652;2022-08-20T04:51:15;20.60;1.00
11536;DHT22;5824;49.336;8.652;2022-08-20T04:53:41;20.60;1.00
11536;DHT22;5824;49.336;8.652;2022-08-20T04:56:07;20.70;1.00
11536;DHT22;5824;49.336;8.652;2022-08-20T04:58:35;20.70;1.00
11536;DHT22;5824;49.336;8.652;2022-08-20T05:01:07;20.80;1.00
11536;DHT22;5824;49.336;8.652;2022-08-20T05:03:33;20.90;1.00
11536;DHT22;5824;49.336;8.652;2022-08-20T05:06:00;21.00;1.00
11536;DHT22;5824;49.336;8.652;2022-08-20T05:08:28;21.20;1.00
11536;DHT22;5824;49.336;8.652;2022-08-20T05:10:55;21.20;1.00
11536;DHT22;5824;49.336;8.652;2022-08-20T05:13:22;21.30;1.00
11536;DHT22;5824;49.336;8.652;2022-08-20T05:15:48;21.40;1.00
11536;DHT22;5824;49.336;8.652;2022-08-20T05:18:16;21.50;1.00
11536;DHT22;5824;49.336;8.652;2022-08-20T05:20:43;21.60;1.00
11536;DHT22;5824;49.336;8.652;2022-08-20T05:23:11;21.60;1.00
11536;DHT22;5824;49.336;8.652;2022-08-20T05:25:39;21.50;1.00
11536;DHT22;5824;49.336;8.652;2022-08-20T05:28:08;21.50;1.00
11536;DHT22;5824;49.336;8.652;2022-08-20T05:30:38;21.50;1.00
11536;DHT22;5824;49.336;8.652;2022-08-20T05:33:05;21.60;1.00
11536;DHT22;5824;49.336;8.652;2022-08-20T05:35:33;21.70;1.00
11536;DHT22;5824;49.336;8.652;2022-08-20T05:38:00;21.70;1.00
11536;DHT22;5824;49.336;8.652;2022-08-20T05:40:26;21.80;1.00
11536;DHT22;5824;49.336;8.652;2022-08-20T05:42:52;21.70;1.00
11536;DHT22;5824;49.336;8.652;2022-08-20T05:45:18;21.80;1.00
11536;DHT22;5824;49.336;8.652;2022-08-20T05:47:44;21.80;1.00
11536;DHT22;5824;49.336;8.652;2022-08-20T05:50:11;21.90;1.00
11536;DHT22;5824;49.336;8.652;2022-08-20T05:52:38;22.00;1.00
11536;DHT22;5824;49.336;8.652;2022-08-20T05:55:06;22.10;1.00
11536;DHT22;5824;49.336;8.652;2022-08-20T05:57:32;22.10;1.00
11536;DHT22;5824;49.336;8.652;2022-08-20T05:59:59;22.20;1.00
11536;DHT22;5824;49.336;8.652;2022-08-20T06:02:27;22.30;1.00
11536;DHT22;5824;49.336;8.652;2022-08-20T06:05:11;22.30;1.00
11536;DHT22;5824;49.336;8.652;2022-08-20T06:07:37;22.40;1.00
11536;DHT22;5824;49.336;8.652;2022-08-20T06:10:04;22.50;1.00
11536;DHT22;5824;49.336;8.652;2022-08-20T06:12:30;22.60;1.00
11536;DHT22;5824;49.336;8.652;2022-08-20T06:14:55;22.80;1.00
11536;DHT22;5824;49.336;8.652;2022-08-20T06:17:21;22.90;1.00
11536;DHT22;5824;49.336;8.652;2022-08-20T06:19:47;23.00;1.00
11536;DHT22;5824;49.336;8.652;2022-08-20T06:22:13;23.20;1.00
11536;DHT22;5824;49.336;8.652;2022-08-20T06:24:39;23.30;1.00
11536;DHT22;5824;49.336;8.652;2022-08-20T06:27:05;23.30;1.00
11536;DHT22;5824;49.336;8.652;2022-08-20T06:29:31;23.40;1.00
11536;DHT22;5824;49.336;8.652;2022-08-20T06:31:58;23.40;1.00
11536;DHT22;5824;49.336;8.652;2022-08-20T06:34:23;23.50;1.00
11536;DHT22;5824;49.336;8.652;2022-08-20T06:36:53;23.60;1.00
11536;DHT22;5824;49.336;8.652;2022-08-20T06:39:18;23.60;1.00
11536;DHT22;5824;49.336;8.652;2022-08-20T06:41:44;23.50;1.00
11536;DHT22;5824;49.336;8.652;2022-08-20T06:44:09;23.50;1.00
11536;DHT22;5824;49.336;8.652;2022-08-20T06:46:36;23.40;1.00
11536;DHT22;5824;49.336;8.652;2022-08-20T06:49:04;23.40;1.00
11536;DHT22;5824;49.336;8.652;2022-08-20T06:51:30;23.50;1.00
11536;DHT22;5824;49.336;8.652;2022-08-20T06:53:56;23.70;1.00
11536;DHT22;5824;49.336;8.652;2022-08-20T06:56:21;23.60;1.00
11536;DHT22;5824;49.336;8.652;2022-08-20T06:58:47;23.70;1.00
11536;DHT22;5824;49.336;8.652;2022-08-20T07:01:14;23.70;1.00
11536;DHT22;5824;49.336;8.652;2022-08-20T07:03:41;23.70;1.00
11536;DHT22;5824;49.336;8.652;2022-08-20T07:06:07;23.80;1.00
11536;DHT22;5824;49.336;8.652;2022-08-20T07:08:33;23.90;1.00
11536;DHT22;5824;49.336;8.652;2022-08-20T07:11:00;23.80;1.00
11536;DHT22;5824;49.336;8.652;2022-08-20T07:13:26;23.90;1.00
11536;DHT22;5824;49.336;8.652;2022-08-20T07:15:53;23.70;1.00
11536;DHT22;5824;49.336;8.652;2022-08-20T07:18:18;23.70;1.00
11536;DHT22;5824;49.336;8.652;2022-08-20T07:20:44;23.60;1.00
11536;DHT22;5824;49.336;8.652;2022-08-20T07:23:10;23.50;1.00
11536;DHT22;5824;49.336;8.652;2022-08-20T07:25:38;23.40;1.00
11536;DHT22;5824;49.336;8.652;2022-08-20T07:28:10;23.50;1.00
11536;DHT22;5824;49.336;8.652;2022-08-20T07:30:36;23.50;1.00
11536;DHT22;5824;49.336;8.652;2022-08-20T07:33:20;23.40;1.00
11536;DHT22;5824;49.336;8.652;2022-08-20T07:35:47;23.40;1.00
11536;DHT22;5824;49.336;8.652;2022-08-20T07:38:15;23.50;1.00
11536;DHT22;5824;49.336;8.652;2022-08-20T07:40:44;23.50;1.00
11536;DHT22;5824;49.336;8.652;2022-08-20T07:43:12;23.50;1.00
11536;DHT22;5824;49.336;8.652;2022-08-20T07:45:39;23.60;1.00
11536;DHT22;5824;49.336;8.652;2022-08-20T07:48:07;23.60;1.00
11536;DHT22;5824;49.336;8.652;2022-08-20T07:50:33;23.60;1.00
11536;DHT22;5824;49.336;8.652;2022-08-20T07:52:58;23.70;1.00
11536;DHT22;5824;49.336;8.652;2022-08-20T07:55:25;24.00;1.00
11536;DHT22;5824;49.336;8.652;2022-08-20T07:57:51;24.20;1.00
11536;DHT22;5824;49.336;8.652;2022-08-20T08:00:20;24.20;1.00
11536;DHT22;5824;49.336;8.652;2022-08-20T08:02:45;24.30;1.00
11536;DHT22;5824;49.336;8.652;2022-08-20T08:05:11;24.30;1.00
11536;DHT22;5824;49.336;8.652;2022-08-20T08:07:37;24.30;1.00
11536;DHT22;5824;49.336;8.652;2022-08-20T08:10:05;24.40;1.00
11536;DHT22;5824;49.336;8.652;2022-08-20T08:12:35;24.50;1.00
11536;DHT22;5824;49.336;8.652;2022-08-20T08:15:03;24.50;1.00
11536;DHT22;5824;49.336;8.652;2022-08-20T08:17:29;24.30;1.00
11536;DHT22;5824;49.336;8.652;2022-08-20T08:19:56;24.30;1.00
11536;DHT22;5824;49.336;8.652;2022-08-20T08:22:22;24.50;1.00
11536;DHT22;5824;49.336;8.652;2022-08-20T08:24:48;24.80;1.00
11536;DHT22;5824;49.336;8.652;2022-08-20T08:27:14;25.00;1.00
11536;DHT22;5824;49.336;8.652;2022-08-20T08:29:43;25.20;1.00
11536;DHT22;5824;49.336;8.652;2022-08-20T08:32:08;25.10;1.00
11536;DHT22;5824;49.336;8.652;2022-08-20T08:34:35;25.20;1.00
11536;DHT22;5824;49.336;8.652;2022-08-20T08:37:02;25.20;1.00
11536;DHT22;5824;49.336;8.652;2022-08-20T08:39:32;25.20;1.00
11536;DHT22;5824;49.336;8.652;2022-08-20T08:41:59;25.20;1.00
11536;DHT22;5824;49.336;8.652;2022-08-20T08:44:32;25.20;1.00
11536;DHT22;5824;49.336;8.652;2022-08-20T08:47:07;25.10;1.00
11536;DHT22;5824;49.336;8.652;2022-08-20T08:49:43;25.00;1.00
11536;DHT22;5824;49.336;8.652;2022-08-20T08:52:13;25.40;1.00
11536;DHT22;5824;49.336;8.652;2022-08-20T08:54:47;25.90;1.00
11536;DHT22;5824;49.336;8.652;2022-08-20T08:57:13;26.60;1.00
11536;DHT22;5824;49.336;8.652;2022-08-20T08:59:40;27.20;1.00
11536;DHT22;5824;49.336;8.652;2022-08-20T09:02:06;27.70;1.00
11536;DHT22;5824;49.336;8.652;2022-08-20T09:04:35;27.60;1.00
11536;DHT22;5824;49.336;8.652;2022-08-20T09:07:04;27.40;1.00
11536;DHT22;5824;49.336;8.652;2022-08-20T09:09:36;27.10;1.00
11536;DHT22;5824;49.336;8.652;2022-08-20T09:12:05;27.00;1.00
11536;DHT22;5824;49.336;8.652;2022-08-20T09:14:31;27.00;1.00
11536;DHT22;5824;49.336;8.652;2022-08-20T09:16:57;27.00;1.00
11536;DHT22;5824;49.336;8.652;2022-08-20T09:19:22;26.70;1.00
11536;DHT22;5824;49.336;8.652;2022-08-20T09:21:48;26.20;1.00
11536;DHT22;5824;49.336;8.652;2022-08-20T09:24:14;25.90;1.00
11536;DHT22;5824;49.336;8.652;2022-08-20T09:26:39;25.80;1.00
11536;DHT22;5824;49.336;8.652;2022-08-20T09:29:05;25.70;1.00
11536;DHT22;5824;49.336;8.652;2022-08-20T09:31:30;25.80;1.00
11536;DHT22;5824;49.336;8.652;2022-08-20T09:33:56;25.90;1.00
11536;DHT22;5824;49.336;8.652;2022-08-20T09:36:22;25.90;1.00
11536;DHT22;5824;49.336;8.652;2022-08-20T09:38:47;26.20;1.00
11536;DHT22;5824;49.336;8.652;2022-08-20T09:41:13;26.40;1.00
11536;DHT22;5824;49.336;8.652;2022-08-20T09:43:38;26.90;1.00
11536;DHT22;5824;49.336;8.652;2022-08-20T09:46:04;28.00;1.00
11536;DHT22;5824;49.336;8.652;2022-08-20T09:48:30;28.90;1.00
11536;DHT22;5824;49.336;8.652;2022-08-20T09:50:55;29.30;1.00
11536;DHT22;5824;49.336;8.652;2022-08-20T09:53:21;29.10;1.00
11536;DHT22;5824;49.336;8.652;2022-08-20T09:55:54;29.30;1.00
11536;DHT22;5824;49.336;8.652;2022-08-20T09:58:36;29.10;1.00
11536;DHT22;5824;49.336;8.652;2022-08-20T10:01:13;29.00;1.00
11536;DHT22;5824;49.336;8.652;2022-08-20T10:03:40;29.40;1.00
11536;DHT22;5824;49.336;8.652;2022-08-20T10:06:06;29.50;1.00
11536;DHT22;5824;49.336;8.652;2022-08-20T10:08:31;29.50;1.00
11536;DHT22;5824;49.336;8.652;2022-08-20T10:10:57;29.60;1.00
11536;DHT22;5824;49.336;8.652;2022-08-20T10:13:23;29.60;1.00
11536;DHT22;5824;49.336;8.652;2022-08-20T10:15:48;29.90;1.00
11536;DHT22;5824;49.336;8.652;2022-08-20T10:18:14;29.80;1.00
11536;DHT22;5824;49.336;8.652;2022-08-20T10:20:40;29.20;1.00
11536;DHT22;5824;49.336;8.652;2022-08-20T10:23:05;29.10;1.00
11536;DHT22;5824;49.336;8.652;2022-08-20T10:25:31;29.10;1.00
11536;DHT22;5824;49.336;8.652;2022-08-20T10:27:57;28.80;1.00
11536;DHT22;5824;49.336;8.652;2022-08-20T10:30:23;28.40;1.00
11536;DHT22;5824;49.336;8.652;2022-08-20T10:32:49;28.40;1.00
11536;DHT22;5824;49.336;8.652;2022-08-20T10:35:14;28.60;1.00
11536;DHT22;5824;49.336;8.652;2022-08-20T10:37:40;28.70;1.00
11536;DHT22;5824;49.336;8.652;2022-08-20T10:40:06;28.70;1.00
11536;DHT22;5824;49.336;8.652;2022-08-20T10:42:32;28.80;1.00
11536;DHT22;5824;49.336;8.652;2022-08-20T10:44:57;28.60;1.00
11536;DHT22;5824;49.336;8.652;2022-08-20T10:47:26;28.80;1.00
11536;DHT22;5824;49.336;8.652;2022-08-20T10:49:54;29.10;1.00
11536;DHT22;5824;49.336;8.652;2022-08-20T10:52:21;29.70;1.00
11536;DHT22;5824;49.336;8.652;2022-08-20T10:54:46;29.90;1.00
11536;DHT22;5824;49.336;8.652;2022-08-20T10:57:19;29.90;1.00
11536;DHT22;5824;49.336;8.652;2022-08-20T10:59:46;29.90;1.00
11536;DHT22;5824;49.336;8.652;2022-08-20T11:02:12;30.30;1.00
11536;DHT22;5824;49.336;8.652;2022-08-20T11:04:38;31.00;1.00
11536;DHT22;5824;49.336;8.652;2022-08-20T11:07:25;31.90;1.00
11536;DHT22;5824;49.336;8.652;2022-08-20T11:09:51;32.50;1.00
11536;DHT22;5824;49.336;8.652;2022-08-20T11:12:19;32.30;1.00
11536;DHT22;5824;49.336;8.652;2022-08-20T11:14:45;32.00;1.00
11536;DHT22;5824;49.336;8.652;2022-08-20T11:17:11;32.20;1.00
11536;DHT22;5824;49.336;8.652;2022-08-20T11:19:42;32.10;1.00
11536;DHT22;5824;49.336;8.652;2022-08-20T11:22:09;32.40;1.00
11536;DHT22;5824;49.336;8.652;2022-08-20T11:24:34;32.60;1.00
11536;DHT22;5824;49.336;8.652;2022-08-20T11:27:00;32.80;1.00
11536;DHT22;5824;49.336;8.652;2022-08-20T11:29:26;32.80;1.00
11536;DHT22;5824;49.336;8.652;2022-08-20T11:31:51;32.30;1.00
11536;DHT22;5824;49.336;8.652;2022-08-20T11:34:17;31.70;1.00
11536;DHT22;5824;49.336;8.652;2022-08-20T11:36:44;31.80;1.00
11536;DHT22;5824;49.336;8.652;2022-08-20T11:39:11;32.40;1.00
11536;DHT22;5824;49.336;8.652;2022-08-20T11:41:36;32.60;1.00
11536;DHT22;5824;49.336;8.652;2022-08-20T11:44:02;32.90;1.00
11536;DHT22;5824;49.336;8.652;2022-08-20T11:46:27;32.60;1.00
11536;DHT22;5824;49.336;8.652;2022-08-20T11:48:53;31.80;1.00
11536;DHT22;5824;49.336;8.652;2022-08-20T11:51:18;31.40;1.00
11536;DHT22;5824;49.336;8.652;2022-08-20T11:53:44;31.10;1.00
11536;DHT22;5824;49.336;8.652;2022-08-20T11:56:10;31.70;1.00
11536;DHT22;5824;49.336;8.652;2022-08-20T11:58:37;33.10;1.00
11536;DHT22;5824;49.336;8.652;2022-08-20T12:01:02;34.20;1.00
11536;DHT22;5824;49.336;8.652;2022-08-20T12:03:28;34.70;1.00
11536;DHT22;5824;49.336;8.652;2022-08-20T12:05:55;33.90;1.00
11536;DHT22;5824;49.336;8.652;2022-08-20T12:08:22;34.10;1.00
11536;DHT22;5824;49.336;8.652;2022-08-20T12:10:47;36.10;1.00
11536;DHT22;5824;49.336;8.652;2022-08-20T12:13:13;37.30;1.00
11536;DHT22;5824;49.336;8.652;2022-08-20T12:15:38;37.10;1.00
11536;DHT22;5824;49.336;8.652;2022-08-20T12:18:07;35.60;1.00
11536;DHT22;5824;49.336;8.652;2022-08-20T12:20:33;34.70;1.00
11536;DHT22;5824;49.336;8.652;2022-08-20T12:22:59;33.70;1.00
11536;DHT22;5824;49.336;8.652;2022-08-20T12:25:25;32.70;1.00
11536;DHT22;5824;49.336;8.652;2022-08-20T12:27:50;32.90;1.00
11536;DHT22;5824;49.336;8.652;2022-08-20T12:30:19;35.10;1.00
11536;DHT22;5824;49.336;8.652;2022-08-20T12:32:46;35.70;1.00
11536;DHT22;5824;49.336;8.652;2022-08-20T12:35:13;34.80;1.00
11536;DHT22;5824;49.336;8.652;2022-08-20T12:37:39;34.30;1.00
11536;DHT22;5824;49.336;8.652;2022-08-20T12:40:08;33.70;1.00
11536;DHT22;5824;49.336;8.652;2022-08-20T12:42:35;35.00;1.00
11536;DHT22;5824;49.336;8.652;2022-08-20T12:45:02;35.90;1.00
11536;DHT22;5824;49.336;8.652;2022-08-20T12:47:33;34.50;1.00
11536;DHT22;5824;49.336;8.652;2022-08-20T12:50:09;33.10;1.00
11536;DHT22;5824;49.336;8.652;2022-08-20T12:52:35;33.10;1.00
11536;DHT22;5824;49.336;8.652;2022-08-20T12:55:01;32.80;1.00
11536;DHT22;5824;49.336;8.652;2022-08-20T12:57:33;32.80;1.00
11536;DHT22;5824;49.336;8.652;2022-08-20T13:00:04;32.60;1.00
11536;DHT22;5824;49.336;8.652;2022-08-20T13:02:30;32.00;1.00
11536;DHT22;5824;49.336;8.652;2022-08-20T13:04:56;31.90;1.00
11536;DHT22;5824;49.336;8.652;2022-08-20T13:07:22;32.30;1.00
11536;DHT22;5824;49.336;8.652;2022-08-20T13:09:47;32.60;1.00
11536;DHT22;5824;49.336;8.652;2022-08-20T13:12:13;33.20;1.00
11536;DHT22;5824;49.336;8.652;2022-08-20T13:14:40;36.10;1.00
11536;DHT22;5824;49.336;8.652;2022-08-20T13:17:05;38.80;1.00
11536;DHT22;5824;49.336;8.652;2022-08-20T13:19:32;40.80;1.00
11536;DHT22;5824;49.336;8.652;2022-08-20T13:21:58;41.30;1.00
11536;DHT22;5824;49.336;8.652;2022-08-20T13:24:24;41.20;1.00
11536;DHT22;5824;49.336;8.652;2022-08-20T13:26:50;41.70;1.00
11536;DHT22;5824;49.336;8.652;2022-08-20T13:29:17;42.30;1.00
11536;DHT22;5824;49.336;8.652;2022-08-20T13:31:43;42.50;1.00
11536;DHT22;5824;49.336;8.652;2022-08-20T13:34:09;41.70;1.00
11536;DHT22;5824;49.336;8.652;2022-08-20T13:36:35;41.40;1.00
11536;DHT22;5824;49.336;8.652;2022-08-20T13:39:02;41.10;1.00
11536;DHT22;5824;49.336;8.652;2022-08-20T13:41:28;40.90;1.00
11536;DHT22;5824;49.336;8.652;2022-08-20T13:43:54;40.60;1.00
11536;DHT22;5824;49.336;8.652;2022-08-20T13:46:19;40.80;1.00
11536;DHT22;5824;49.336;8.652;2022-08-20T13:48:45;40.30;1.00
11536;DHT22;5824;49.336;8.652;2022-08-20T13:51:10;41.40;1.00
11536;DHT22;5824;49.336;8.652;2022-08-20T13:53:36;40.80;1.00
11536;DHT22;5824;49.336;8.652;2022-08-20T13:56:01;40.70;1.00
11536;DHT22;5824;49.336;8.652;2022-08-20T13:58:28;40.10;1.00
11536;DHT22;5824;49.336;8.652;2022-08-20T14:00:53;39.50;1.00
11536;DHT22;5824;49.336;8.652;2022-08-20T14:03:19;40.80;1.00
11536;DHT22;5824;49.336;8.652;2022-08-20T14:05:44;42.30;1.00
11536;DHT22;5824;49.336;8.652;2022-08-20T14:08:14;43.40;1.00
11536;DHT22;5824;49.336;8.652;2022-08-20T14:10:41;44.10;1.00
11536;DHT22;5824;49.336;8.652;2022-08-20T14:13:07;43.20;1.00
11536;DHT22;5824;49.336;8.652;2022-08-20T14:15:34;42.90;1.00
11536;DHT22;5824;49.336;8.652;2022-08-20T14:18:00;43.00;1.00
11536;DHT22;5824;49.336;8.652;2022-08-20T14:20:28;43.00;1.00
11536;DHT22;5824;49.336;8.652;2022-08-20T14:22:55;42.70;1.00
11536;DHT22;5824;49.336;8.652;2022-08-20T14:25:22;42.50;1.00
11536;DHT22;5824;49.336;8.652;2022-08-20T14:27:48;42.90;1.00
11536;DHT22;5824;49.336;8.652;2022-08-20T14:30:17;42.10;1.00
11536;DHT22;5824;49.336;8.652;2022-08-20T14:32:43;41.90;1.00
11536;DHT22;5824;49.336;8.652;2022-08-20T14:35:09;41.50;1.00
11536;DHT22;5824;49.336;8.652;2022-08-20T14:37:38;41.80;1.00
11536;DHT22;5824;49.336;8.652;2022-08-20T14:40:07;42.10;1.00
11536;DHT22;5824;49.336;8.652;2022-08-20T14:42:34;42.70;1.00
11536;DHT22;5824;49.336;8.652;2022-08-20T14:44:59;43.40;1.00
11536;DHT22;5824;49.336;8.652;2022-08-20T14:47:28;43.50;1.00
11536;DHT22;5824;49.336;8.652;2022-08-20T14:49:56;42.30;1.00
11536;DHT22;5824;49.336;8.652;2022-08-20T14:52:23;42.10;1.00
11536;DHT22;5824;49.336;8.652;2022-08-20T14:54:49;41.70;1.00
11536;DHT22;5824;49.336;8.652;2022-08-20T14:57:17;41.20;1.00
11536;DHT22;5824;49.336;8.652;2022-08-20T14:59:43;42.10;1.00
11536;DHT22;5824;49.336;8.652;2022-08-20T15:02:10;42.90;1.00
11536;DHT22;5824;49.336;8.652;2022-08-20T15:04:37;43.60;1.00
11536;DHT22;5824;49.336;8.652;2022-08-20T15:07:04;43.40;1.00
11536;DHT22;5824;49.336;8.652;2022-08-20T15:09:32;43.00;1.00
11536;DHT22;5824;49.336;8.652;2022-08-20T15:11:58;43.00;1.00
11536;DHT22;5824;49.336;8.652;2022-08-20T15:14:24;41.80;1.00
11536;DHT22;5824;49.336;8.652;2022-08-20T15:16:50;40.70;1.00
11536;DHT22;5824;49.336;8.652;2022-08-20T15:19:16;40.50;1.00
11536;DHT22;5824;49.336;8.652;2022-08-20T15:21:41;40.30;1.00
11536;DHT22;5824;49.336;8.652;2022-08-20T15:24:07;40.00;1.00
11536;DHT22;5824;49.336;8.652;2022-08-20T15:26:32;39.90;1.00
11536;DHT22;5824;49.336;8.652;2022-08-20T15:28:58;40.30;1.00
11536;DHT22;5824;49.336;8.652;2022-08-20T15:31:23;40.10;1.00
11536;DHT22;5824;49.336;8.652;2022-08-20T15:33:49;39.90;1.00
11536;DHT22;5824;49.336;8.652;2022-08-20T15:36:15;40.20;1.00
11536;DHT22;5824;49.336;8.652;2022-08-20T15:38:40;40.10;1.00
11536;DHT22;5824;49.336;8.652;2022-08-20T15:41:06;40.20;1.00
11536;DHT22;5824;49.336;8.652;2022-08-20T15:43:32;40.10;1.00
11536;DHT22;5824;49.336;8.652;2022-08-20T15:45:58;40.00;1.00
11536;DHT22;5824;49.336;8.652;2022-08-20T15:48:45;39.70;1.00
11536;DHT22;5824;49.336;8.652;2022-08-20T15:51:30;39.40;1.00
11536;DHT22;5824;49.336;8.652;2022-08-20T15:54:06;39.40;1.00
11536;DHT22;5824;49.336;8.652;2022-08-20T15:57:02;39.30;1.00
11536;DHT22;5824;49.336;8.652;2022-08-20T16:05:35;39.00;1.00
11536;DHT22;5824;49.336;8.652;2022-08-20T16:11:11;38.20;1.00
11536;DHT22;5824;49.336;8.652;2022-08-20T16:13:48;38.20;1.00
11536;DHT22;5824;49.336;8.652;2022-08-20T16:16:21;37.70;1.00
11536;DHT22;5824;49.336;8.652;2022-08-20T16:18:50;37.30;1.00